sensor_id;sensor_type;location;lat;lon;timestamp;pressure;altitude;pressure_sealevel;temperature;humidity
28606;BME280;46498;49.968;7.754;2023-04-28T00:02:39;-18588.00;;;9.74;86.20
28606;BME280;46498;49.968;7.754;2023-04-28T00:07:40;-18589.00;;;9.77;92.09
28606;BME280;46498;49.968;7.754;2023-04-28T00:12:41;-18586.00;;;9.66;95.85
28606;BME280;46498;49.968;7.754;2023-04-28T00:17:44;-18583.00;;;9.59;98.13
28606;BME280;46498;49.968;7.754;2023-04-28T00:22:45;-18578.00;;;9.42;100.00
28606;BME280;46498;49.968;7.754;2023-04-28T00:27:46;-18578.00;;;9.41;100.00
28606;BME280;46498;49.968;7.754;2023-04-28T00:32:47;-18571.00;;;9.21;100.00
28606;BME280;46498;49.968;7.754;2023-04-28T00:37:48;-18564.00;;;8.98;100.00
28606;BME280;46498;49.968;7.754;2023-04-28T00:42:49;-18567.00;;;9.09;100.00
28606;BME280;46498;49.968;7.754;2023-04-28T00:47:50;-18570.00;;;9.18;100.00
28606;BME280;46498;49.968;7.754;2023-04-28T00:52:51;-18571.00;;;9.19;100.00
28606;BME280;46498;49.968;7.754;2023-04-28T00:57:54;-18572.00;;;9.25;100.00
28606;BME280;46498;49.968;7.754;2023-04-28T01:02:56;-18570.00;;;9.17;100.00
28606;BME280;46498;49.968;7.754;2023-04-28T01:07:58;-18566.00;;;9.04;100.00
28606;BME280;46498;49.968;7.754;2023-04-28T01:12:59;-18565.00;;;9.02;100.00
28606;BME280;46498;49.968;7.754;2023-04-28T01:18:00;-18561.00;;;8.88;100.00
28606;BME280;46498;49.968;7.754;2023-04-28T01:23:02;-18557.00;;;8.76;100.00
28606;BME280;46498;49.968;7.754;2023-04-28T01:28:03;-18559.00;;;8.83;100.00
28606;BME280;46498;49.968;7.754;2023-04-28T01:33:04;-18560.00;;;8.86;100.00
28606;BME280;46498;49.968;7.754;2023-04-28T01:38:05;-18565.00;;;9.02;100.00
28606;BME280;46498;49.968;7.754;2023-04-28T01:43:06;-18566.00;;;9.04;100.00
28606;BME280;46498;49.968;7.754;2023-04-28T01:48:07;-18564.00;;;8.99;100.00
28606;BME280;46498;49.968;7.754;2023-04-28T01:53:08;-18560.00;;;8.86;100.00
28606;BME280;46498;49.968;7.754;2023-04-28T01:58:09;-18561.00;;;8.88;100.00
28606;BME280;46498;49.968;7.754;2023-04-28T02:03:10;-18562.00;;;8.93;100.00
28606;BME280;46498;49.968;7.754;2023-04-28T02:08:11;-18567.00;;;9.07;100.00
28606;BME280;46498;49.968;7.754;2023-04-28T02:13:12;-18566.00;;;9.04;100.00
28606;BME280;46498;49.968;7.754;2023-04-28T02:18:13;-18564.00;;;8.98;100.00
28606;BME280;46498;49.968;7.754;2023-04-28T02:23:13;-18563.00;;;8.95;100.00
28606;BME280;46498;49.968;7.754;2023-04-28T02:28:14;-18561.00;;;8.90;100.00
28606;BME280;46498;49.968;7.754;2023-04-28T02:33:15;-18563.00;;;8.94;100.00
28606;BME280;46498;49.968;7.754;2023-04-28T02:38:16;-18560.00;;;8.86;100.00
28606;BME280;46498;49.968;7.754;2023-04-28T02:43:17;-18556.00;;;8.75;100.00
28606;BME280;46498;49.968;7.754;2023-04-28T02:48:19;-18560.00;;;8.87;100.00
28606;BME280;46498;49.968;7.754;2023-04-28T02:53:21;-18560.00;;;8.87;100.00
28606;BME280;46498;49.968;7.754;2023-04-28T02:58:22;-18556.00;;;8.75;100.00
28606;BME280;46498;49.968;7.754;2023-04-28T03:03:23;-18563.00;;;8.96;100.00
28606;BME280;46498;49.968;7.754;2023-04-28T03:08:25;-18558.00;;;8.80;100.00
28606;BME280;46498;49.968;7.754;2023-04-28T03:13:27;-18557.00;;;8.76;100.00
28606;BME280;46498;49.968;7.754;2023-04-28T03:18:29;-18564.00;;;8.98;100.00
28606;BME280;46498;49.968;7.754;2023-04-28T03:23:30;-18561.00;;;8.90;100.00
28606;BME280;46498;49.968;7.754;2023-04-28T03:28:31;-18560.00;;;8.87;100.00
28606;BME280;46498;49.968;7.754;2023-04-28T03:33:33;-18560.00;;;8.86;100.00
28606;BME280;46498;49.968;7.754;2023-04-28T03:38:34;-18564.00;;;8.98;100.00
28606;BME280;46498;49.968;7.754;2023-04-28T03:43:35;-18560.00;;;8.87;100.00
28606;BME280;46498;49.968;7.754;2023-04-28T03:48:53;-18559.00;;;8.84;100.00
28606;BME280;46498;49.968;7.754;2023-04-28T03:53:54;-18557.00;;;8.76;100.00
28606;BME280;46498;49.968;7.754;2023-04-28T03:58:55;-18560.00;;;8.85;100.00
28606;BME280;46498;49.968;7.754;2023-04-28T04:03:56;-18558.00;;;8.79;100.00
28606;BME280;46498;49.968;7.754;2023-04-28T04:08:57;-18559.00;;;8.82;100.00
28606;BME280;46498;49.968;7.754;2023-04-28T04:13:58;-18558.00;;;8.79;100.00
28606;BME280;46498;49.968;7.754;2023-04-28T04:18:59;-18560.00;;;8.85;100.00
28606;BME280;46498;49.968;7.754;2023-04-28T04:24:06;-18559.00;;;8.83;100.00
28606;BME280;46498;49.968;7.754;2023-04-28T04:29:07;-18557.00;;;8.76;100.00
28606;BME280;46498;49.968;7.754;2023-04-28T04:34:09;-18559.00;;;8.84;100.00
28606;BME280;46498;49.968;7.754;2023-04-28T04:39:11;-18562.00;;;8.92;100.00
28606;BME280;46498;49.968;7.754;2023-04-28T04:44:11;-18561.00;;;8.89;100.00
28606;BME280;46498;49.968;7.754;2023-04-28T04:49:16;-18556.00;;;8.75;100.00
28606;BME280;46498;49.968;7.754;2023-04-28T04:54:17;-18555.00;;;8.71;100.00
28606;BME280;46498;49.968;7.754;2023-04-28T04:59:18;-18554.00;;;8.67;100.00
28606;BME280;46498;49.968;7.754;2023-04-28T05:04:31;-18548.00;;;8.49;100.00
28606;BME280;46498;49.968;7.754;2023-04-28T05:09:33;-18542.00;;;8.30;100.00
28606;BME280;46498;49.968;7.754;2023-04-28T05:14:34;-18548.00;;;8.49;100.00
28606;BME280;46498;49.968;7.754;2023-04-28T05:19:35;-18551.00;;;8.58;100.00
28606;BME280;46498;49.968;7.754;2023-04-28T05:24:36;-18553.00;;;8.63;100.00
28606;BME280;46498;49.968;7.754;2023-04-28T05:29:37;-18554.00;;;8.66;100.00
28606;BME280;46498;49.968;7.754;2023-04-28T05:34:38;-18549.00;;;8.53;100.00
28606;BME280;46498;49.968;7.754;2023-04-28T05:39:39;-18553.00;;;8.63;100.00
28606;BME280;46498;49.968;7.754;2023-04-28T05:44:40;-18548.00;;;8.50;100.00
28606;BME280;46498;49.968;7.754;2023-04-28T05:49:43;-18548.00;;;8.47;100.00
28606;BME280;46498;49.968;7.754;2023-04-28T05:54:45;-18548.00;;;8.48;100.00
28606;BME280;46498;49.968;7.754;2023-04-28T05:59:46;-18549.00;;;8.52;100.00
28606;BME280;46498;49.968;7.754;2023-04-28T06:04:48;-18550.00;;;8.53;100.00
28606;BME280;46498;49.968;7.754;2023-04-28T06:09:49;-18549.00;;;8.52;100.00
28606;BME280;46498;49.968;7.754;2023-04-28T06:14:50;-18551.00;;;8.56;100.00
28606;BME280;46498;49.968;7.754;2023-04-28T06:19:54;-18554.00;;;8.66;100.00
28606;BME280;46498;49.968;7.754;2023-04-28T06:24:56;-18553.00;;;8.63;100.00
28606;BME280;46498;49.968;7.754;2023-04-28T06:30:06;-18548.00;;;8.48;100.00
28606;BME280;46498;49.968;7.754;2023-04-28T06:35:07;-18558.00;;;8.78;100.00
28606;BME280;46498;49.968;7.754;2023-04-28T06:40:09;-18565.00;;;9.01;100.00
28606;BME280;46498;49.968;7.754;2023-04-28T06:45:14;-18566.00;;;9.03;100.00
28606;BME280;46498;49.968;7.754;2023-04-28T06:50:15;-18569.00;;;9.14;100.00
28606;BME280;46498;49.968;7.754;2023-04-28T06:55:16;-18572.00;;;9.24;100.00
28606;BME280;46498;49.968;7.754;2023-04-28T07:00:17;-18576.00;;;9.35;100.00
28606;BME280;46498;49.968;7.754;2023-04-28T07:05:18;-18571.00;;;9.20;100.00
28606;BME280;46498;49.968;7.754;2023-04-28T07:10:19;-18570.00;;;9.18;100.00
28606;BME280;46498;49.968;7.754;2023-04-28T07:15:20;-18572.00;;;9.22;100.00
28606;BME280;46498;49.968;7.754;2023-04-28T07:20:21;-18560.00;;;8.84;100.00
28606;BME280;46498;49.968;7.754;2023-04-28T07:25:22;-18558.00;;;8.79;100.00
28606;BME280;46498;49.968;7.754;2023-04-28T07:30:23;-18557.00;;;8.76;100.00
28606;BME280;46498;49.968;7.754;2023-04-28T07:35:28;-18560.00;;;8.86;100.00
28606;BME280;46498;49.968;7.754;2023-04-28T07:40:29;-18560.00;;;8.85;100.00
28606;BME280;46498;49.968;7.754;2023-04-28T07:45:30;-18563.00;;;8.96;100.00
28606;BME280;46498;49.968;7.754;2023-04-28T07:50:33;-18570.00;;;9.17;100.00
28606;BME280;46498;49.968;7.754;2023-04-28T07:55:34;-18571.00;;;9.19;100.00
28606;BME280;46498;49.968;7.754;2023-04-28T08:00:35;-18568.00;;;9.10;100.00
28606;BME280;46498;49.968;7.754;2023-04-28T08:05:37;-18573.00;;;9.26;100.00
28606;BME280;46498;49.968;7.754;2023-04-28T08:10:38;-18562.00;;;8.92;100.00
28606;BME280;46498;49.968;7.754;2023-04-28T08:15:41;-18571.00;;;9.21;100.00
28606;BME280;46498;49.968;7.754;2023-04-28T08:20:42;-18578.00;;;9.43;100.00
28606;BME280;46498;49.968;7.754;2023-04-28T08:25:43;-18584.00;;;9.62;100.00
28606;BME280;46498;49.968;7.754;2023-04-28T08:30:44;-18587.00;;;9.69;100.00
28606;BME280;46498;49.968;7.754;2023-04-28T08:35:45;-18593.00;;;9.88;100.00
28606;BME280;46498;49.968;7.754;2023-04-28T08:40:45;-18592.00;;;9.86;100.00
28606;BME280;46498;49.968;7.754;2023-04-28T08:45:46;-18595.00;;;9.96;100.00
28606;BME280;46498;49.968;7.754;2023-04-28T08:50:52;-18595.00;;;9.94;100.00
28606;BME280;46498;49.968;7.754;2023-04-28T08:55:56;-18596.00;;;9.98;100.00
28606;BME280;46498;49.968;7.754;2023-04-28T09:00:57;-18598.00;;;10.06;100.00
28606;BME280;46498;49.968;7.754;2023-04-28T09:06:00;-18591.00;;;9.84;100.00
28606;BME280;46498;49.968;7.754;2023-04-28T09:11:09;-18588.00;;;9.72;100.00
28606;BME280;46498;49.968;7.754;2023-04-28T09:16:10;-18588.00;;;9.75;100.00
28606;BME280;46498;49.968;7.754;2023-04-28T09:21:11;-18589.00;;;9.76;100.00
28606;BME280;46498;49.968;7.754;2023-04-28T09:26:13;-18594.00;;;9.91;100.00
28606;BME280;46498;49.968;7.754;2023-04-28T09:31:24;-18595.00;;;9.96;100.00
28606;BME280;46498;49.968;7.754;2023-04-28T09:36:27;-18598.00;;;10.06;100.00
28606;BME280;46498;49.968;7.754;2023-04-28T09:41:41;-18601.00;;;10.14;100.00
28606;BME280;46498;49.968;7.754;2023-04-28T09:46:45;-18607.00;;;10.32;100.00
28606;BME280;46498;49.968;7.754;2023-04-28T09:51:47;-18608.00;;;10.37;100.00
28606;BME280;46498;49.968;7.754;2023-04-28T09:56:48;-18608.00;;;10.37;100.00
28606;BME280;46498;49.968;7.754;2023-04-28T10:01:50;-18609.00;;;10.40;100.00
28606;BME280;46498;49.968;7.754;2023-04-28T10:06:51;-18610.00;;;10.44;100.00
28606;BME280;46498;49.968;7.754;2023-04-28T10:11:52;-18614.00;;;10.56;100.00
28606;BME280;46498;49.968;7.754;2023-04-28T10:16:54;-18618.00;;;10.66;100.00
28606;BME280;46498;49.968;7.754;2023-04-28T10:28:49;-18616.00;;;10.62;100.00
28606;BME280;46498;49.968;7.754;2023-04-28T10:33:50;-18616.00;;;10.62;100.00
28606;BME280;46498;49.968;7.754;2023-04-28T10:39:08;-18613.00;;;10.54;100.00
28606;BME280;46498;49.968;7.754;2023-04-28T10:56:31;-18609.00;;;10.39;100.00
28606;BME280;46498;49.968;7.754;2023-04-28T11:01:32;-18614.00;;;10.57;100.00
28606;BME280;46498;49.968;7.754;2023-04-28T11:06:40;-18618.00;;;10.67;100.00
28606;BME280;46498;49.968;7.754;2023-04-28T11:18:02;-18616.00;;;10.60;100.00
28606;BME280;46498;49.968;7.754;2023-04-28T11:23:04;-18625.00;;;10.91;100.00
28606;BME280;46498;49.968;7.754;2023-04-28T11:28:05;-18641.00;;;11.39;100.00
28606;BME280;46498;49.968;7.754;2023-04-28T11:33:08;-18653.00;;;11.78;100.00
28606;BME280;46498;49.968;7.754;2023-04-28T11:38:09;-18663.00;;;12.10;100.00
28606;BME280;46498;49.968;7.754;2023-04-28T11:43:10;-18661.00;;;12.04;100.00
28606;BME280;46498;49.968;7.754;2023-04-28T11:48:20;-18666.00;;;12.17;100.00
28606;BME280;46498;49.968;7.754;2023-04-28T11:53:39;-18669.00;;;12.30;100.00
28606;BME280;46498;49.968;7.754;2023-04-28T11:58:41;-18671.00;;;12.35;100.00
28606;BME280;46498;49.968;7.754;2023-04-28T12:03:45;-18690.00;;;12.94;100.00
28606;BME280;46498;49.968;7.754;2023-04-28T12:08:47;-18699.00;;;13.22;100.00
28606;BME280;46498;49.968;7.754;2023-04-28T12:14:04;-18708.00;;;13.51;100.00
28606;BME280;46498;49.968;7.754;2023-04-28T12:19:06;-18707.00;;;13.46;100.00
28606;BME280;46498;49.968;7.754;2023-04-28T12:24:17;-18692.00;;;13.01;100.00
28606;BME280;46498;49.968;7.754;2023-04-28T12:29:38;-18691.00;;;12.97;100.00
28606;BME280;46498;49.968;7.754;2023-04-28T12:34:40;-18688.00;;;12.88;100.00
28606;BME280;46498;49.968;7.754;2023-04-28T12:39:41;-18676.00;;;12.50;100.00
28606;BME280;46498;49.968;7.754;2023-04-28T12:44:43;-18665.00;;;12.15;100.00
28606;BME280;46498;49.968;7.754;2023-04-28T12:49:44;-18665.00;;;12.14;100.00
28606;BME280;46498;49.968;7.754;2023-04-28T12:54:47;-18668.00;;;12.23;100.00
28606;BME280;46498;49.968;7.754;2023-04-28T12:59:47;-18665.00;;;12.16;100.00
28606;BME280;46498;49.968;7.754;2023-04-28T13:04:48;-18664.00;;;12.13;100.00
28606;BME280;46498;49.968;7.754;2023-04-28T13:09:51;-18666.00;;;12.20;100.00
28606;BME280;46498;49.968;7.754;2023-04-28T13:14:52;-18672.00;;;12.38;100.00
28606;BME280;46498;49.968;7.754;2023-04-28T13:19:53;-18676.00;;;12.50;100.00
28606;BME280;46498;49.968;7.754;2023-04-28T13:24:54;-18680.00;;;12.64;100.00
28606;BME280;46498;49.968;7.754;2023-04-28T13:29:55;-18702.00;;;13.33;100.00
28606;BME280;46498;49.968;7.754;2023-04-28T13:34:58;-18707.00;;;13.48;100.00
28606;BME280;46498;49.968;7.754;2023-04-28T13:39:59;-18708.00;;;13.52;100.00
28606;BME280;46498;49.968;7.754;2023-04-28T13:45:04;-18705.00;;;13.42;100.00
28606;BME280;46498;49.968;7.754;2023-04-28T13:50:05;-18713.00;;;13.65;100.00
28606;BME280;46498;49.968;7.754;2023-04-28T13:55:07;-18721.00;;;13.90;100.00
28606;BME280;46498;49.968;7.754;2023-04-28T14:00:10;-18718.00;;;13.82;100.00
28606;BME280;46498;49.968;7.754;2023-04-28T14:05:11;-18724.00;;;14.00;100.00
28606;BME280;46498;49.968;7.754;2023-04-28T14:10:12;-18726.00;;;14.07;100.00
28606;BME280;46498;49.968;7.754;2023-04-28T14:15:14;-18731.00;;;14.24;100.00
28606;BME280;46498;49.968;7.754;2023-04-28T14:20:15;-18733.00;;;14.29;100.00
28606;BME280;46498;49.968;7.754;2023-04-28T14:25:17;-18739.00;;;14.48;100.00
28606;BME280;46498;49.968;7.754;2023-04-28T14:30:19;-18742.00;;;14.58;100.00
28606;BME280;46498;49.968;7.754;2023-04-28T14:35:21;-18734.00;;;14.31;100.00
28606;BME280;46498;49.968;7.754;2023-04-28T14:40:22;-18740.00;;;14.52;100.00
28606;BME280;46498;49.968;7.754;2023-04-28T14:45:23;-18742.00;;;14.56;100.00
28606;BME280;46498;49.968;7.754;2023-04-28T14:50:24;-18760.00;;;15.15;100.00
28606;BME280;46498;49.968;7.754;2023-04-28T14:55:25;-18771.00;;;15.48;100.00
28606;BME280;46498;49.968;7.754;2023-04-28T15:00:26;-18767.00;;;15.37;100.00
28606;BME280;46498;49.968;7.754;2023-04-28T15:05:27;-18767.00;;;15.35;100.00
28606;BME280;46498;49.968;7.754;2023-04-28T15:10:33;-18777.00;;;15.68;100.00
28606;BME280;46498;49.968;7.754;2023-04-28T15:15:37;-18781.00;;;15.80;100.00
28606;BME280;46498;49.968;7.754;2023-04-28T15:20:38;-18787.00;;;16.00;100.00
28606;BME280;46498;49.968;7.754;2023-04-28T15:25:39;-18789.00;;;16.05;100.00
28606;BME280;46498;49.968;7.754;2023-04-28T15:30:40;-18784.00;;;15.88;100.00
28606;BME280;46498;49.968;7.754;2023-04-28T15:35:42;-18789.00;;;16.05;100.00
28606;BME280;46498;49.968;7.754;2023-04-28T15:40:44;-18802.00;;;16.46;100.00
28606;BME280;46498;49.968;7.754;2023-04-28T15:45:45;-18801.00;;;16.44;100.00
28606;BME280;46498;49.968;7.754;2023-04-28T15:50:47;-18813.00;;;16.80;100.00
28606;BME280;46498;49.968;7.754;2023-04-28T15:55:48;-18819.00;;;16.99;100.00
28606;BME280;46498;49.968;7.754;2023-04-28T16:00:49;-18817.00;;;16.93;100.00
28606;BME280;46498;49.968;7.754;2023-04-28T16:05:54;-18825.00;;;17.20;100.00
28606;BME280;46498;49.968;7.754;2023-04-28T16:10:55;-18830.00;;;17.33;100.00
28606;BME280;46498;49.968;7.754;2023-04-28T16:15:56;-18827.00;;;17.25;100.00
28606;BME280;46498;49.968;7.754;2023-04-28T16:20:57;-18820.00;;;17.02;100.00
28606;BME280;46498;49.968;7.754;2023-04-28T16:25:57;-18823.00;;;17.11;100.00
28606;BME280;46498;49.968;7.754;2023-04-28T16:30:58;-18829.00;;;17.31;96.85
28606;BME280;46498;49.968;7.754;2023-04-28T16:35:59;-18829.00;;;17.31;97.08
28606;BME280;46498;49.968;7.754;2023-04-28T16:41:00;-18819.00;;;17.01;99.37
28606;BME280;46498;49.968;7.754;2023-04-28T16:46:01;-18811.00;;;16.73;100.00
28606;BME280;46498;49.968;7.754;2023-04-28T16:51:02;-18812.00;;;16.77;100.00
28606;BME280;46498;49.968;7.754;2023-04-28T16:56:07;-18812.00;;;16.78;100.00
28606;BME280;46498;49.968;7.754;2023-04-28T17:01:11;-18809.00;;;16.68;100.00
28606;BME280;46498;49.968;7.754;2023-04-28T17:06:12;-18804.00;;;16.53;100.00
28606;BME280;46498;49.968;7.754;2023-04-28T17:11:15;-18811.00;;;16.75;100.00
28606;BME280;46498;49.968;7.754;2023-04-28T17:16:17;-18812.00;;;16.76;100.00
28606;BME280;46498;49.968;7.754;2023-04-28T17:21:19;-18806.00;;;16.57;100.00
28606;BME280;46498;49.968;7.754;2023-04-28T17:26:20;-18799.00;;;16.37;100.00
28606;BME280;46498;49.968;7.754;2023-04-28T17:31:21;-18802.00;;;16.47;100.00
28606;BME280;46498;49.968;7.754;2023-04-28T17:36:22;-18800.00;;;16.39;100.00
28606;BME280;46498;49.968;7.754;2023-04-28T17:41:25;-18798.00;;;16.34;100.00
28606;BME280;46498;49.968;7.754;2023-04-28T17:46:26;-18795.00;;;16.25;100.00
28606;BME280;46498;49.968;7.754;2023-04-28T17:51:27;-18797.00;;;16.30;100.00
28606;BME280;46498;49.968;7.754;2023-04-28T17:56:28;-18801.00;;;16.43;100.00
28606;BME280;46498;49.968;7.754;2023-04-28T18:01:31;-18804.00;;;16.53;100.00
28606;BME280;46498;49.968;7.754;2023-04-28T18:06:32;-18800.00;;;16.39;100.00
28606;BME280;46498;49.968;7.754;2023-04-28T18:11:33;-18795.00;;;16.23;100.00
28606;BME280;46498;49.968;7.754;2023-04-28T18:16:34;-18791.00;;;16.11;100.00
28606;BME280;46498;49.968;7.754;2023-04-28T18:21:35;-18784.00;;;15.91;100.00
28606;BME280;46498;49.968;7.754;2023-04-28T18:26:37;-18783.00;;;15.87;100.00
28606;BME280;46498;49.968;7.754;2023-04-28T18:31:37;-18778.00;;;15.69;100.00
28606;BME280;46498;49.968;7.754;2023-04-28T18:36:39;-18773.00;;;15.53;100.00
28606;BME280;46498;49.968;7.754;2023-04-28T18:41:40;-18772.00;;;15.50;100.00
28606;BME280;46498;49.968;7.754;2023-04-28T18:46:41;-18764.00;;;15.26;100.00
28606;BME280;46498;49.968;7.754;2023-04-28T18:51:42;-18758.00;;;15.08;100.00
28606;BME280;46498;49.968;7.754;2023-04-28T18:56:43;-18755.00;;;14.98;100.00
28606;BME280;46498;49.968;7.754;2023-04-28T19:01:46;-18749.00;;;14.80;100.00
28606;BME280;46498;49.968;7.754;2023-04-28T19:06:47;-18744.00;;;14.64;100.00
28606;BME280;46498;49.968;7.754;2023-04-28T19:11:48;-18738.00;;;14.45;100.00
28606;BME280;46498;49.968;7.754;2023-04-28T19:16:49;-18732.00;;;14.27;100.00
28606;BME280;46498;49.968;7.754;2023-04-28T19:21:50;-18726.00;;;14.06;100.00
28606;BME280;46498;49.968;7.754;2023-04-28T19:26:52;-18725.00;;;14.05;100.00
28606;BME280;46498;49.968;7.754;2023-04-28T19:31:54;-18728.00;;;14.12;100.00
28606;BME280;46498;49.968;7.754;2023-04-28T19:36:55;-18723.00;;;13.98;100.00
28606;BME280;46498;49.968;7.754;2023-04-28T19:41:58;-18716.00;;;13.75;100.00
28606;BME280;46498;49.968;7.754;2023-04-28T19:47:01;-18716.00;;;13.74;100.00
28606;BME280;46498;49.968;7.754;2023-04-28T19:52:03;-18709.00;;;13.54;100.00
28606;BME280;46498;49.968;7.754;2023-04-28T19:57:09;-18705.00;;;13.40;100.00
28606;BME280;46498;49.968;7.754;2023-04-28T20:02:10;-18697.00;;;13.14;100.00
28606;BME280;46498;49.968;7.754;2023-04-28T20:07:11;-18694.00;;;13.06;100.00
28606;BME280;46498;49.968;7.754;2023-04-28T20:12:12;-18693.00;;;13.04;100.00
28606;BME280;46498;49.968;7.754;2023-04-28T20:17:14;-18686.00;;;12.81;100.00
28606;BME280;46498;49.968;7.754;2023-04-28T20:22:16;-18682.00;;;12.69;100.00
28606;BME280;46498;49.968;7.754;2023-04-28T20:27:17;-18675.00;;;12.48;100.00
28606;BME280;46498;49.968;7.754;2023-04-28T20:32:18;-18671.00;;;12.35;100.00
28606;BME280;46498;49.968;7.754;2023-04-28T20:37:18;-18668.00;;;12.25;100.00
28606;BME280;46498;49.968;7.754;2023-04-28T20:42:21;-18664.00;;;12.13;100.00
28606;BME280;46498;49.968;7.754;2023-04-28T20:47:22;-18660.00;;;12.00;100.00
28606;BME280;46498;49.968;7.754;2023-04-28T20:52:23;-18662.00;;;12.06;100.00
28606;BME280;46498;49.968;7.754;2023-04-28T20:57:23;-18660.00;;;11.99;100.00
28606;BME280;46498;49.968;7.754;2023-04-28T21:02:24;-18660.00;;;11.99;100.00
28606;BME280;46498;49.968;7.754;2023-04-28T21:07:25;-18656.00;;;11.86;100.00
28606;BME280;46498;49.968;7.754;2023-04-28T21:12:26;-18655.00;;;11.83;100.00
28606;BME280;46498;49.968;7.754;2023-04-28T21:17:27;-18653.00;;;11.79;100.00
28606;BME280;46498;49.968;7.754;2023-04-28T21:22:28;-18652.00;;;11.74;100.00
28606;BME280;46498;49.968;7.754;2023-04-28T21:27:29;-18649.00;;;11.64;100.00
28606;BME280;46498;49.968;7.754;2023-04-28T21:32:30;-18646.00;;;11.57;100.00
28606;BME280;46498;49.968;7.754;2023-04-28T21:37:31;-18646.00;;;11.56;100.00
28606;BME280;46498;49.968;7.754;2023-04-28T21:42:32;-18645.00;;;11.52;100.00
28606;BME280;46498;49.968;7.754;2023-04-28T21:47:34;-18644.00;;;11.49;100.00
28606;BME280;46498;49.968;7.754;2023-04-28T21:52:35;-18643.00;;;11.47;100.00
28606;BME280;46498;49.968;7.754;2023-04-28T21:57:36;-18643.00;;;11.45;100.00
28606;BME280;46498;49.968;7.754;2023-04-28T22:02:40;-18645.00;;;11.53;100.00
28606;BME280;46498;49.968;7.754;2023-04-28T22:07:41;-18642.00;;;11.44;100.00
28606;BME280;46498;49.968;7.754;2023-04-28T22:12:42;-18639.00;;;11.35;100.00
28606;BME280;46498;49.968;7.754;2023-04-28T22:17:43;-18641.00;;;11.42;100.00
28606;BME280;46498;49.968;7.754;2023-04-28T22:22:44;-18640.00;;;11.37;100.00
28606;BME280;46498;49.968;7.754;2023-04-28T22:27:45;-18632.00;;;11.13;100.00
28606;BME280;46498;49.968;7.754;2023-04-28T22:32:46;-18635.00;;;11.21;100.00
28606;BME280;46498;49.968;7.754;2023-04-28T22:37:47;-18633.00;;;11.15;100.00
28606;BME280;46498;49.968;7.754;2023-04-28T22:42:48;-18633.00;;;11.15;100.00
28606;BME280;46498;49.968;7.754;2023-04-28T22:47:49;-18632.00;;;11.13;100.00
28606;BME280;46498;49.968;7.754;2023-04-28T22:52:50;-18633.00;;;11.16;100.00
28606;BME280;46498;49.968;7.754;2023-04-28T22:57:51;-18633.00;;;11.16;100.00
28606;BME280;46498;49.968;7.754;2023-04-28T23:02:52;-18632.00;;;11.13;100.00
28606;BME280;46498;49.968;7.754;2023-04-28T23:07:53;-18632.00;;;11.12;100.00
28606;BME280;46498;49.968;7.754;2023-04-28T23:12:54;-18633.00;;;11.14;100.00
28606;BME280;46498;49.968;7.754;2023-04-28T23:17:55;-18635.00;;;11.22;100.00
28606;BME280;46498;49.968;7.754;2023-04-28T23:22:55;-18632.00;;;11.11;100.00
28606;BME280;46498;49.968;7.754;2023-04-28T23:27:57;-18631.00;;;11.09;100.00
28606;BME280;46498;49.968;7.754;2023-04-28T23:32:58;-18627.00;;;10.96;100.00
28606;BME280;46498;49.968;7.754;2023-04-28T23:37:59;-18624.00;;;10.86;100.00
28606;BME280;46498;49.968;7.754;2023-04-28T23:43:01;-18624.00;;;10.87;100.00
28606;BME280;46498;49.968;7.754;2023-04-28T23:48:02;-18623.00;;;10.84;100.00
28606;BME280;46498;49.968;7.754;2023-04-28T23:53:03;-18620.00;;;10.73;100.00
28606;BME280;46498;49.968;7.754;2023-04-28T23:58:03;-18616.00;;;10.62;100.00
